createdAt,value
2024-02-18T00:00:28.714Z,3.50
2024-02-18T00:02:57.321Z,3.50
2024-02-18T00:05:25.743Z,3.50
2024-02-18T00:07:54.252Z,3.50
2024-02-18T00:10:23.412Z,3.40
2024-02-18T00:12:53.333Z,3.40
2024-02-18T00:15:21.953Z,3.40
2024-02-18T00:17:50.598Z,3.40
2024-02-18T00:20:19.026Z,3.40
2024-02-18T00:22:47.505Z,3.30
2024-02-18T00:25:16.146Z,3.30
2024-02-18T00:27:45.101Z,3.30
2024-02-18T00:30:15.744Z,3.30
2024-02-18T00:32:44.737Z,3.30
2024-02-18T00:35:13.333Z,3.30
2024-02-18T00:37:41.762Z,3.30
2024-02-18T00:40:10.885Z,3.30
2024-02-18T00:42:39.432Z,3.30
2024-02-18T00:45:09.268Z,3.20
2024-02-18T00:47:39.232Z,3.20
2024-02-18T00:50:09.068Z,3.20
2024-02-18T00:52:37.686Z,3.20
2024-02-18T00:55:07.341Z,3.20
2024-02-18T00:57:35.910Z,3.20
2024-02-18T01:00:05.119Z,3.20
2024-02-18T01:02:33.646Z,3.20
2024-02-18T01:05:03.996Z,3.20
2024-02-18T01:07:32.612Z,3.20
2024-02-18T01:10:01.215Z,3.20
2024-02-18T01:12:29.970Z,3.10
2024-02-18T01:14:58.611Z,3.20
2024-02-18T01:17:27.216Z,3.10
2024-02-18T01:19:59.274Z,3.20
2024-02-18T01:22:29.443Z,3.20
2024-02-18T01:24:58.104Z,3.20
2024-02-18T01:27:26.841Z,3.20
2024-02-18T01:29:55.449Z,3.20
2024-02-18T01:32:23.904Z,3.20
2024-02-18T01:34:55.574Z,3.20
2024-02-18T01:37:24.178Z,3.20
2024-02-18T01:39:54.713Z,3.20
2024-02-18T01:42:23.270Z,3.20
2024-02-18T01:44:51.647Z,3.20
2024-02-18T01:47:21.519Z,3.20
2024-02-18T01:49:51.808Z,3.20
2024-02-18T01:52:21.231Z,3.20
2024-02-18T01:54:50.089Z,3.20
2024-02-18T01:57:20.451Z,3.20
2024-02-18T01:59:48.976Z,3.20
2024-02-18T02:02:17.289Z,3.20
2024-02-18T02:04:46.444Z,3.20
2024-02-18T02:07:15.218Z,3.10
2024-02-18T02:09:43.973Z,3.20
2024-02-18T02:12:12.511Z,3.10
2024-02-18T02:14:42.357Z,3.10
2024-02-18T02:17:12.046Z,3.10
2024-02-18T02:19:40.513Z,3.10
2024-02-18T02:22:08.879Z,3.20
2024-02-18T02:24:37.651Z,3.20
2024-02-18T02:27:09.302Z,3.20
2024-02-18T02:29:39.461Z,3.20
2024-02-18T02:32:08.409Z,3.20
2024-02-18T02:34:36.898Z,3.10
2024-02-18T02:37:05.951Z,3.10
2024-02-18T02:39:34.425Z,3.10
2024-02-18T02:42:03.915Z,3.10
2024-02-18T02:44:32.239Z,3.00
2024-02-18T02:47:02.207Z,3.10
2024-02-18T02:49:30.761Z,3.10
2024-02-18T02:51:59.204Z,3.20
2024-02-18T02:54:27.565Z,3.00
2024-02-18T02:56:55.956Z,3.10
2024-02-18T02:59:24.263Z,3.10
2024-02-18T03:01:52.748Z,3.00
2024-02-18T03:04:22.531Z,3.10
2024-02-18T03:06:50.993Z,3.10
2024-02-18T03:09:20.134Z,3.10
2024-02-18T03:11:48.624Z,3.10
2024-02-18T03:14:17.282Z,3.10
2024-02-18T03:16:45.738Z,3.10
2024-02-18T03:19:14.149Z,3.10
2024-02-18T03:21:44.716Z,3.10
2024-02-18T03:24:13.122Z,3.10
2024-02-18T03:26:41.818Z,3.20
2024-02-18T03:29:11.780Z,3.00
2024-02-18T03:31:40.214Z,3.00
2024-02-18T03:34:08.650Z,3.00
2024-02-18T03:36:37.177Z,3.10
2024-02-18T03:39:06.955Z,3.00
2024-02-18T03:41:35.305Z,3.00
2024-02-18T03:44:03.693Z,3.00
2024-02-18T03:46:32.072Z,3.00
2024-02-18T03:49:00.384Z,3.00
2024-02-18T03:51:28.798Z,3.00
2024-02-18T03:53:57.261Z,3.00
2024-02-18T03:56:26.953Z,3.00
2024-02-18T03:58:55.625Z,3.00
2024-02-18T04:01:24.208Z,3.00
2024-02-18T04:03:52.721Z,3.00
2024-02-18T04:06:21.159Z,3.00
2024-02-18T04:08:49.463Z,2.90
2024-02-18T04:11:17.851Z,3.00
2024-02-18T04:13:47.580Z,3.00
2024-02-18T04:16:15.908Z,3.00
2024-02-18T04:18:45.014Z,3.00
2024-02-18T04:21:13.438Z,3.00
2024-02-18T04:23:41.787Z,2.90
2024-02-18T04:26:10.187Z,3.00
2024-02-18T04:28:38.431Z,2.90
2024-02-18T04:31:08.454Z,2.90
2024-02-18T04:33:37.231Z,2.90
2024-02-18T04:36:06.220Z,2.80
2024-02-18T04:38:34.568Z,2.80
2024-02-18T04:41:02.861Z,2.80
2024-02-18T04:43:31.150Z,2.80
2024-02-18T04:45:59.601Z,2.80
2024-02-18T04:48:29.841Z,2.70
2024-02-18T04:50:58.748Z,2.70
2024-02-18T04:53:26.995Z,2.70
2024-02-18T04:55:55.321Z,2.60
2024-02-18T04:58:24.482Z,2.60
2024-02-18T05:00:52.893Z,2.60
2024-02-18T05:03:22.643Z,2.50
2024-02-18T05:05:52.648Z,2.60
2024-02-18T05:08:21.156Z,2.60
2024-02-18T05:10:49.985Z,2.40
2024-02-18T05:13:18.343Z,2.50
2024-02-18T05:15:47.776Z,2.50
2024-02-18T05:18:16.182Z,2.50
2024-02-18T05:20:44.465Z,2.50
2024-02-18T05:23:14.380Z,2.50
2024-02-18T05:25:45.388Z,2.40
2024-02-18T05:28:14.116Z,2.30
2024-02-18T05:30:42.446Z,2.40
2024-02-18T05:33:10.907Z,2.40
2024-02-18T05:35:39.384Z,2.40
2024-02-18T05:38:07.879Z,2.30
2024-02-18T05:40:37.546Z,2.30
2024-02-18T05:43:06.237Z,2.40
2024-02-18T05:45:34.641Z,2.20
2024-02-18T05:48:03.107Z,2.20
2024-02-18T05:50:31.579Z,2.20
2024-02-18T05:52:59.963Z,2.10
2024-02-18T05:55:28.207Z,2.20
2024-02-18T05:57:58.274Z,2.10
2024-02-18T06:00:26.795Z,2.20
2024-02-18T06:02:55.174Z,2.20
2024-02-18T06:05:23.549Z,2.20
2024-02-18T06:07:51.953Z,2.10
2024-02-18T06:10:20.893Z,2.10
2024-02-18T06:12:49.494Z,2.10
2024-02-18T06:15:19.261Z,2.00
2024-02-18T06:17:47.640Z,1.90
2024-02-18T06:20:17.475Z,1.80
2024-02-18T06:22:45.892Z,1.70
2024-02-18T06:25:14.182Z,1.60
2024-02-18T06:27:42.764Z,1.50
2024-02-18T06:30:12.247Z,1.30
2024-02-18T06:32:42.045Z,1.40
2024-02-18T06:35:10.649Z,1.30
2024-02-18T06:37:39.229Z,1.30
2024-02-18T06:40:08.596Z,1.20
2024-02-18T06:42:37.118Z,1.20
2024-02-18T06:45:06.116Z,1.10
2024-02-18T06:47:34.573Z,1.20
2024-02-18T06:50:05.169Z,1.20
2024-02-18T06:52:33.656Z,1.20
2024-02-18T06:55:02.507Z,1.30
2024-02-18T06:57:31.019Z,1.20
2024-02-18T06:59:59.592Z,1.30
2024-02-18T07:02:27.934Z,1.40
2024-02-18T07:04:57.513Z,1.60
2024-02-18T07:07:27.338Z,1.90
2024-02-18T07:09:55.839Z,2.10
2024-02-18T07:12:24.223Z,2.20
2024-02-18T07:14:52.532Z,2.30
2024-02-18T07:17:21.326Z,2.50
2024-02-18T07:19:50.981Z,2.90
2024-02-18T07:22:19.680Z,3.40
2024-02-18T07:24:49.482Z,3.70
2024-02-18T07:27:17.862Z,3.60
2024-02-18T07:29:46.113Z,3.70
2024-02-18T07:32:14.635Z,3.60
2024-02-18T07:34:43.131Z,3.50
2024-02-18T07:37:12.163Z,3.50
2024-02-18T07:39:40.869Z,3.50
2024-02-18T07:42:11.594Z,3.70
2024-02-18T07:44:40.152Z,4.20
2024-02-18T07:47:08.437Z,5.10
2024-02-18T07:49:36.758Z,5.60
2024-02-18T07:52:06.166Z,6.40
2024-02-18T07:54:34.633Z,6.40
2024-02-18T07:57:03.023Z,6.50
2024-02-18T07:59:34.996Z,5.80
2024-02-18T08:02:05.050Z,5.50
2024-02-18T08:04:33.605Z,5.10
2024-02-18T08:07:02.110Z,4.90
2024-02-18T08:09:30.494Z,4.80
2024-02-18T08:11:59.335Z,4.70
2024-02-18T08:14:27.822Z,4.60
2024-02-18T08:16:57.775Z,4.60
2024-02-18T08:19:26.456Z,4.60
2024-02-18T08:21:54.861Z,4.70
2024-02-18T08:24:23.361Z,4.80
2024-02-18T08:26:52.009Z,4.90
2024-02-18T08:29:20.428Z,5.00
2024-02-18T08:31:48.794Z,4.80
2024-02-18T08:34:18.648Z,4.90
2024-02-18T08:36:47.106Z,4.80
2024-02-18T08:39:15.397Z,4.80
2024-02-18T08:41:43.705Z,4.70
2024-02-18T08:44:13.495Z,4.80
2024-02-18T08:46:42.076Z,4.60
2024-02-18T08:49:10.518Z,4.50
2024-02-18T08:51:40.708Z,4.40
2024-02-18T08:54:09.254Z,4.40
2024-02-18T08:56:37.546Z,4.40
2024-02-18T08:59:08.271Z,4.40
2024-02-18T09:01:36.962Z,4.50
2024-02-18T09:04:05.591Z,4.60
2024-02-18T09:06:34.133Z,4.60
2024-02-18T09:09:04.010Z,4.50
2024-02-18T09:11:32.473Z,4.50
2024-02-18T09:14:00.886Z,4.50
2024-02-18T09:16:29.161Z,4.60
2024-02-18T09:18:57.640Z,4.60
2024-02-18T09:21:26.119Z,4.60
2024-02-18T09:23:54.428Z,4.70
2024-02-18T09:26:24.422Z,4.80
2024-02-18T09:28:52.802Z,5.00
2024-02-18T09:31:21.223Z,5.00
2024-02-18T09:33:49.834Z,5.00
2024-02-18T09:36:18.296Z,4.80
2024-02-18T09:38:46.568Z,4.70
2024-02-18T09:41:19.037Z,4.70
2024-02-18T09:43:51.155Z,4.70
2024-02-18T09:46:22.305Z,4.70
2024-02-18T09:48:51.067Z,4.70
2024-02-18T09:51:20.497Z,4.70
2024-02-18T09:53:50.427Z,4.80
2024-02-18T09:56:18.826Z,4.90
2024-02-18T09:58:48.538Z,5.00
2024-02-18T10:01:21.092Z,4.90
2024-02-18T10:03:50.240Z,4.90
2024-02-18T10:06:18.810Z,4.90
2024-02-18T10:08:52.942Z,4.90
2024-02-18T10:11:22.437Z,4.90
2024-02-18T10:13:53.038Z,5.00
2024-02-18T10:16:21.441Z,4.90
2024-02-18T10:18:50.060Z,5.00
2024-02-18T10:21:19.398Z,5.10
2024-02-18T10:23:47.826Z,5.20
2024-02-18T10:26:17.633Z,5.30
2024-02-18T10:28:46.050Z,5.20
2024-02-18T10:31:16.126Z,5.20
2024-02-18T10:33:44.687Z,5.20
2024-02-18T10:36:15.097Z,5.40
2024-02-18T10:38:46.368Z,5.30
2024-02-18T10:41:18.686Z,5.30
2024-02-18T10:43:51.421Z,5.30
2024-02-18T10:46:22.337Z,5.40
2024-02-18T10:48:54.720Z,5.50
2024-02-18T10:51:27.470Z,5.50
2024-02-18T10:54:08.979Z,5.70
2024-02-18T10:56:39.138Z,5.80
2024-02-18T10:59:18.222Z,6.00
2024-02-18T11:01:54.802Z,5.90
2024-02-18T11:04:26.478Z,5.70
2024-02-18T11:06:56.925Z,5.60
2024-02-18T11:09:26.556Z,5.60
2024-02-18T11:11:56.027Z,5.50
2024-02-18T11:14:26.222Z,5.50
2024-02-18T11:16:57.504Z,5.60
2024-02-18T11:19:27.469Z,5.50
2024-02-18T11:21:56.428Z,5.90
2024-02-18T11:24:25.520Z,6.40
2024-02-18T11:26:54.204Z,6.60
2024-02-18T11:29:22.485Z,6.60
2024-02-18T11:31:52.067Z,6.50
2024-02-18T11:34:22.435Z,6.20
2024-02-18T11:36:50.861Z,6.40
2024-02-18T11:39:19.199Z,6.50
2024-02-18T11:41:46.578Z,6.50
2024-02-18T11:44:15.804Z,6.80
2024-02-18T11:46:46.295Z,6.90
2024-02-18T11:49:15.353Z,7.20
2024-02-18T11:51:45.602Z,7.20
2024-02-18T11:54:16.482Z,7.30
2024-02-18T11:56:44.931Z,7.20
2024-02-18T11:59:13.494Z,7.10
2024-02-18T12:01:42.057Z,6.90
2024-02-18T12:04:11.369Z,6.70
2024-02-18T12:06:40.232Z,6.50
2024-02-18T12:09:16.013Z,6.40
2024-02-18T12:11:46.630Z,6.20
2024-02-18T12:14:15.171Z,5.70
2024-02-18T12:16:46.887Z,5.70
2024-02-18T12:19:15.550Z,5.70
2024-02-18T12:21:44.062Z,5.90
2024-02-18T12:24:13.762Z,5.90
2024-02-18T12:26:42.040Z,5.80
2024-02-18T12:29:10.480Z,5.80
2024-02-18T12:31:39.190Z,5.90
2024-02-18T12:34:07.939Z,5.80
2024-02-18T12:36:36.917Z,5.80
2024-02-18T12:39:08.763Z,6.00
2024-02-18T12:41:38.499Z,6.10
2024-02-18T12:44:43.610Z,6.40
2024-02-18T12:46:58.974Z,6.40
2024-02-18T12:49:28.799Z,6.60
2024-02-18T12:52:05.540Z,6.60
2024-02-18T12:54:34.704Z,6.50
2024-02-18T12:57:05.665Z,6.50
2024-02-18T12:59:35.249Z,6.60
2024-02-18T13:02:04.297Z,6.50
2024-02-18T13:04:32.705Z,6.40
2024-02-18T13:07:06.200Z,6.40
2024-02-18T13:09:35.340Z,6.50
2024-02-18T13:12:05.999Z,6.30
2024-02-18T13:14:34.374Z,6.40
2024-02-18T13:17:03.242Z,6.40
2024-02-18T13:19:31.679Z,6.40
2024-02-18T13:22:00.169Z,6.50
2024-02-18T13:24:28.556Z,6.40
2024-02-18T13:26:57.623Z,6.60
2024-02-18T13:29:27.408Z,6.60
2024-02-18T13:31:55.941Z,6.70
2024-02-18T13:34:28.160Z,6.70
2024-02-18T13:36:57.995Z,6.70
2024-02-18T13:39:26.645Z,6.70
2024-02-18T13:41:56.114Z,6.70
2024-02-18T13:44:24.553Z,6.60
2024-02-18T13:46:55.987Z,6.70
2024-02-18T13:49:24.567Z,6.70
2024-02-18T13:51:53.522Z,6.60
2024-02-18T13:54:21.933Z,6.50
2024-02-18T13:56:50.349Z,6.40
2024-02-18T13:59:18.817Z,6.40
2024-02-18T14:01:47.880Z,6.40
2024-02-18T14:04:17.974Z,6.40
2024-02-18T14:06:46.353Z,6.40
2024-02-18T14:09:14.677Z,6.40
2024-02-18T14:11:54.488Z,6.40
2024-02-18T14:14:23.169Z,6.30
2024-02-18T14:16:52.931Z,6.20
2024-02-18T14:19:23.551Z,6.10
2024-02-18T14:21:52.272Z,6.10
2024-02-18T14:24:21.454Z,6.00
2024-02-18T14:26:49.729Z,6.00
2024-02-18T14:29:18.806Z,6.00
2024-02-18T14:31:47.164Z,6.00
2024-02-18T14:34:15.696Z,6.00
2024-02-18T14:36:45.796Z,5.90
2024-02-18T14:39:14.213Z,5.90
2024-02-18T14:41:42.545Z,5.90
2024-02-18T14:44:10.974Z,5.80
2024-02-18T14:46:39.421Z,5.70
2024-02-18T14:49:07.778Z,5.70
2024-02-18T14:51:36.210Z,5.60
2024-02-18T14:54:06.076Z,5.60
2024-02-18T14:56:34.417Z,5.50
2024-02-18T14:59:02.819Z,5.50
2024-02-18T15:01:31.187Z,5.40
2024-02-18T15:03:59.939Z,5.40
2024-02-18T15:06:28.508Z,5.40
2024-02-18T15:08:58.466Z,5.30
2024-02-18T15:11:28.818Z,5.30
2024-02-18T15:13:57.117Z,5.30
2024-02-18T15:16:25.401Z,5.30
2024-02-18T15:18:54.013Z,5.20
2024-02-18T15:21:22.369Z,5.20
2024-02-18T15:23:50.697Z,5.10
2024-02-18T15:26:18.929Z,5.10
2024-02-18T15:28:48.616Z,5.10
2024-02-18T15:31:16.941Z,5.10
2024-02-18T15:33:46.087Z,5.00
2024-02-18T15:36:14.476Z,5.00
2024-02-18T15:38:43.281Z,4.90
2024-02-18T15:41:11.607Z,4.90
2024-02-18T15:43:40.232Z,4.70
2024-02-18T15:46:10.112Z,4.70
2024-02-18T15:48:38.562Z,4.70
2024-02-18T15:51:07.882Z,4.40
2024-02-18T15:53:36.312Z,4.30
2024-02-18T15:56:04.663Z,4.20
2024-02-18T15:58:33.144Z,4.00
2024-02-18T16:01:04.313Z,3.90
2024-02-18T16:03:35.697Z,3.70
2024-02-18T16:06:04.168Z,3.60
2024-02-18T16:08:38.309Z,3.40
2024-02-18T16:11:09.018Z,3.20
2024-02-18T16:13:41.337Z,3.10
2024-02-18T16:16:10.174Z,2.90
2024-02-18T16:18:42.480Z,2.80
2024-02-18T16:21:11.815Z,2.70
2024-02-18T16:23:43.086Z,2.60
2024-02-18T16:26:15.759Z,2.50
2024-02-18T16:28:44.201Z,2.30
2024-02-18T16:31:12.497Z,2.20
2024-02-18T16:33:42.409Z,2.00
2024-02-18T16:36:10.941Z,1.90
2024-02-18T16:38:39.189Z,1.80
2024-02-18T16:41:07.485Z,1.70
2024-02-18T16:43:36.401Z,1.70
2024-02-18T16:46:05.263Z,1.60
2024-02-18T16:48:36.396Z,1.50
2024-02-18T16:51:06.899Z,1.40
2024-02-18T16:53:35.363Z,1.30
2024-02-18T16:56:06.055Z,1.30
2024-02-18T16:58:34.367Z,1.20
2024-02-18T17:01:02.964Z,1.10
2024-02-18T17:03:31.348Z,1.00
2024-02-18T17:05:59.847Z,1.00
2024-02-18T17:08:30.090Z,0.90
2024-02-18T17:10:58.749Z,0.80
2024-02-18T17:13:27.116Z,0.80
2024-02-18T17:15:56.998Z,0.70
2024-02-18T17:18:26.274Z,0.70
2024-02-18T17:20:54.620Z,0.60
2024-02-18T17:23:23.057Z,0.50
2024-02-18T17:25:54.005Z,0.50
2024-02-18T17:28:22.428Z,0.50
2024-02-18T17:30:53.256Z,0.40
2024-02-18T17:33:21.981Z,0.30
2024-02-18T17:35:50.524Z,0.30
2024-02-18T17:38:18.926Z,0.30
2024-02-18T17:40:48.164Z,0.20
2024-02-18T17:43:20.829Z,0.20
2024-02-18T17:45:50.011Z,0.10
2024-02-18T17:48:18.449Z,0.00
2024-02-18T17:50:46.892Z,0.00
2024-02-18T17:53:16.299Z,0.00
2024-02-18T17:55:45.624Z,-0.10
2024-02-18T17:58:14.459Z,-0.10
2024-02-18T18:00:44.460Z,-0.10
2024-02-18T18:03:13.022Z,-0.10
2024-02-18T18:05:41.460Z,-0.20
2024-02-18T18:08:09.938Z,-0.10
2024-02-18T18:10:38.383Z,-0.20
2024-02-18T18:13:07.434Z,-0.10
2024-02-18T18:15:35.898Z,-0.10
2024-02-18T18:18:06.627Z,-0.10
2024-02-18T18:20:34.978Z,-0.10
2024-02-18T18:23:03.522Z,-0.10
2024-02-18T18:25:31.878Z,0.00
2024-02-18T18:28:00.244Z,0.00
2024-02-18T18:30:28.730Z,0.00
2024-02-18T18:32:57.104Z,0.00
2024-02-18T18:35:26.980Z,0.00
2024-02-18T18:37:55.392Z,0.00
2024-02-18T18:40:23.719Z,-0.10
2024-02-18T18:42:52.188Z,-0.10
2024-02-18T18:45:21.046Z,0.00
2024-02-18T18:47:52.819Z,0.00
2024-02-18T18:50:21.610Z,0.00
2024-02-18T18:52:51.274Z,0.00
2024-02-18T18:55:20.085Z,0.00
2024-02-18T18:57:48.950Z,-0.10
2024-02-18T19:00:17.998Z,0.00
2024-02-18T19:02:46.422Z,0.00
2024-02-18T19:05:17.525Z,-0.10
2024-02-18T19:07:46.126Z,-0.10
2024-02-18T19:10:16.085Z,0.00
2024-02-18T19:12:44.550Z,0.00
2024-02-18T19:15:13.518Z,0.00
2024-02-18T19:17:41.983Z,-0.10
2024-02-18T19:20:11.379Z,-0.10
2024-02-18T19:22:40.041Z,0.00
2024-02-18T19:25:09.163Z,-0.10
2024-02-18T19:27:39.033Z,-0.20
2024-02-18T19:30:15.349Z,-0.10
2024-02-18T19:32:44.175Z,-0.10
2024-02-18T19:35:13.017Z,0.00
2024-02-18T19:37:41.494Z,-0.10
2024-02-18T19:40:10.942Z,-0.20
2024-02-18T19:42:41.014Z,-0.20
2024-02-18T19:45:10.863Z,-0.20
2024-02-18T19:47:40.131Z,-0.20
2024-02-18T19:50:10.776Z,-0.20
2024-02-18T19:52:39.297Z,-0.20
2024-02-18T19:55:08.887Z,-0.20
2024-02-18T19:57:39.350Z,-0.30
2024-02-18T20:00:11.785Z,-0.20
2024-02-18T20:02:40.264Z,-0.30
2024-02-18T20:05:09.744Z,-0.30
2024-02-18T20:07:38.252Z,-0.30
2024-02-18T20:10:09.468Z,-0.40
2024-02-18T20:12:38.345Z,-0.50
2024-02-18T20:15:10.061Z,-0.50
2024-02-18T20:17:39.198Z,-0.50
2024-02-18T20:20:10.489Z,-0.30
2024-02-18T20:22:39.005Z,-0.40
2024-02-18T20:25:08.619Z,-0.50
2024-02-18T20:27:37.755Z,-0.50
2024-02-18T20:30:10.295Z,-0.60
2024-02-18T20:32:38.848Z,-0.50
2024-02-18T20:37:38.347Z,-0.60
2024-02-18T20:40:10.972Z,-0.60
2024-02-18T20:42:39.679Z,-0.60
2024-02-18T20:45:11.041Z,-0.60
2024-02-18T20:47:39.433Z,-0.70
2024-02-18T20:50:08.976Z,-0.70
2024-02-18T20:52:37.476Z,-0.60
2024-02-18T20:55:06.445Z,-0.50
2024-02-18T20:57:35.506Z,-0.50
2024-02-18T21:00:07.366Z,-0.50
2024-02-18T21:02:37.367Z,-0.50
2024-02-18T21:05:07.899Z,-0.50
2024-02-18T21:07:38.049Z,-0.50
2024-02-18T21:10:07.459Z,-0.50
2024-02-18T21:12:35.933Z,-0.50
2024-02-18T21:15:04.476Z,-0.50
2024-02-18T21:17:33.565Z,-0.50
2024-02-18T21:20:05.000Z,-0.50
2024-02-18T21:22:33.598Z,-0.50
2024-02-18T21:25:02.284Z,-0.40
2024-02-18T21:27:31.202Z,-0.40
2024-02-18T21:30:00.019Z,-0.40
2024-02-18T21:32:28.570Z,-0.50
2024-02-18T21:34:58.046Z,-0.50
2024-02-18T21:37:28.409Z,-0.50
2024-02-18T21:39:56.837Z,-0.50
2024-02-18T21:42:25.100Z,-0.40
2024-02-18T21:44:53.507Z,-0.40
2024-02-18T21:47:21.841Z,-0.40
2024-02-18T21:49:50.422Z,-0.40
2024-02-18T21:52:19.209Z,-0.30
2024-02-18T21:54:52.558Z,-0.20
2024-02-18T21:57:21.081Z,-0.20
2024-02-18T21:59:49.508Z,-0.10
2024-02-18T22:02:18.628Z,0.00
2024-02-18T22:04:47.102Z,0.00
2024-02-18T22:07:18.096Z,0.10
2024-02-18T22:09:47.369Z,0.10
2024-02-18T22:12:17.385Z,0.20
2024-02-18T22:14:46.052Z,0.20
2024-02-18T22:17:14.374Z,0.20
2024-02-18T22:19:42.840Z,0.30
2024-02-18T22:22:11.240Z,0.30
2024-02-18T22:24:39.631Z,0.30
2024-02-18T22:27:08.059Z,0.30
2024-02-18T22:29:37.917Z,0.30
2024-02-18T22:32:07.268Z,0.30
2024-02-18T22:34:36.172Z,0.40
2024-02-18T22:37:04.683Z,0.40
2024-02-18T22:39:33.123Z,0.40
2024-02-18T22:42:01.804Z,0.50
2024-02-18T22:44:30.286Z,0.50
2024-02-18T22:47:00.057Z,0.50
2024-02-18T22:49:28.420Z,0.50
2024-02-18T22:51:56.946Z,0.60
2024-02-18T22:54:25.289Z,0.50
2024-02-18T22:56:53.692Z,0.60
2024-02-18T22:59:22.022Z,0.50
2024-02-18T23:01:52.225Z,0.50
2024-02-18T23:04:22.179Z,0.50
2024-02-18T23:06:50.481Z,0.50
2024-02-18T23:09:18.826Z,0.70
2024-02-18T23:11:47.294Z,0.50
2024-02-18T23:14:15.795Z,0.50
2024-02-18T23:16:44.326Z,0.50
2024-02-18T23:19:13.755Z,0.50
2024-02-18T23:21:43.482Z,0.50
2024-02-18T23:24:11.859Z,0.40
2024-02-18T23:26:40.175Z,0.40
2024-02-18T23:29:08.648Z,0.40
2024-02-18T23:31:38.849Z,0.50
2024-02-18T23:34:08.846Z,0.40
2024-02-18T23:36:37.478Z,0.40
2024-02-18T23:39:07.137Z,0.40
2024-02-18T23:41:35.509Z,0.40
2024-02-18T23:44:03.748Z,0.30
2024-02-18T23:46:32.317Z,0.30
2024-02-18T23:49:00.752Z,0.40
2024-02-18T23:51:29.166Z,0.40
2024-02-18T23:53:57.440Z,0.40
2024-02-18T23:56:32.162Z,0.40
2024-02-18T23:59:00.516Z,0.40
